Time;durP1;ratioP1;P1;durP2;ratioP2;P2;SDS_P1;SDS_P2;PMS_P1;PMS_P2;Temp;Humidity;BMP_temperature;BMP_pressure;BME280_temperature;BME280_humidity;BME280_pressure;Samples;Min_cycle;Max_cycle;Signal;HPM_P1;HPM_P2
2024/01/12 00:00:36;;;;;;;9.93;7.03;;;;;-5.30;97043.00;;;;5054239;28;20211;-62
2024/01/12 00:03:05;;;;;;;11.23;6.70;;;;;-5.40;97054.00;;;;5054090;28;20578;-62
2024/01/12 00:05:32;;;;;;;5.57;5.13;;;;;-5.30;97051.00;;;;5053803;28;20276;-62
2024/01/12 00:08:00;;;;;;;14.13;7.27;;;;;-5.30;97049.00;;;;5053988;28;20190;-62
2024/01/12 00:10:26;;;;;;;8.13;6.27;;;;;-5.30;97057.00;;;;5053873;28;20195;-62
2024/01/12 00:12:54;;;;;;;5.47;4.97;;;;;-5.40;97041.00;;;;5052637;28;20722;-63
2024/01/12 00:15:21;;;;;;;6.77;5.87;;;;;-5.40;97050.00;;;;5053705;28;20627;-62
2024/01/12 00:17:49;;;;;;;5.97;4.73;;;;;-5.30;97047.00;;;;5053846;28;20190;-62
2024/01/12 00:20:18;;;;;;;10.33;5.90;;;;;-5.30;97056.00;;;;5053751;28;20581;-61
2024/01/12 00:22:45;;;;;;;10.17;6.53;;;;;-5.20;97058.00;;;;5053375;28;20213;-63
2024/01/12 00:25:13;;;;;;;6.13;5.20;;;;;-5.20;97042.00;;;;5053660;28;20200;-62
2024/01/12 00:27:40;;;;;;;14.00;6.70;;;;;-5.20;97053.00;;;;5053368;28;20199;-61
2024/01/12 00:30:09;;;;;;;6.83;6.13;;;;;-5.30;97052.00;;;;5053524;28;20189;-62
2024/01/12 00:32:38;;;;;;;8.47;7.67;;;;;-5.30;97043.00;;;;5054021;28;20220;-61
2024/01/12 00:35:07;;;;;;;5.97;5.07;;;;;-5.40;97050.00;;;;5053915;28;20198;-61
2024/01/12 00:37:36;;;;;;;15.30;7.30;;;;;-5.40;97047.00;;;;5054274;28;20193;-61
2024/01/12 00:40:04;;;;;;;7.07;5.83;;;;;-5.30;97057.00;;;;5053770;28;20313;-61
2024/01/12 00:42:32;;;;;;;9.67;6.50;;;;;-5.50;97063.00;;;;5053148;28;20222;-61
2024/01/12 00:44:59;;;;;;;8.77;7.03;;;;;-5.40;97057.00;;;;5053496;28;20196;-61
2024/01/12 00:47:27;;;;;;;6.17;5.70;;;;;-5.40;97054.00;;;;5053365;28;20196;-62
2024/01/12 00:49:54;;;;;;;5.53;5.03;;;;;-5.30;97054.00;;;;5053389;28;20191;-61
2024/01/12 00:52:21;;;;;;;8.90;6.13;;;;;-5.30;97055.00;;;;5053395;28;20213;-61
2024/01/12 00:54:50;;;;;;;7.73;6.97;;;;;-5.40;97067.00;;;;5052099;28;20691;-62
2024/01/12 00:57:18;;;;;;;7.03;5.37;;;;;-5.50;97071.00;;;;5053400;28;20190;-61
2024/01/12 00:59:46;;;;;;;3.93;3.73;;;;;-5.60;97067.00;;;;5053329;28;20222;-61
2024/01/12 01:02:14;;;;;;;13.33;5.37;;;;;-5.50;97076.00;;;;5052927;28;20217;-61
2024/01/12 01:04:41;;;;;;;7.47;6.13;;;;;-5.50;97079.00;;;;5053225;28;20587;-61
2024/01/12 01:07:09;;;;;;;6.23;5.60;;;;;-5.60;97079.00;;;;5051864;28;20204;-61
2024/01/12 01:09:36;;;;;;;14.73;8.53;;;;;-5.70;97071.00;;;;5053542;28;20186;-61
2024/01/12 01:12:06;;;;;;;8.70;5.53;;;;;-5.80;97070.00;;;;5052880;28;20228;-61
2024/01/12 01:14:33;;;;;;;8.07;6.23;;;;;-5.90;97067.00;;;;5053359;28;20277;-61
2024/01/12 01:17:01;;;;;;;5.90;5.37;;;;;-5.70;97074.00;;;;5052868;28;20204;-61
2024/01/12 01:19:28;;;;;;;12.83;8.07;;;;;-5.70;97074.00;;;;5053341;28;20696;-61
2024/01/12 01:21:56;;;;;;;10.27;5.93;;;;;-5.80;97063.00;;;;5052382;28;20216;-61
2024/01/12 01:24:26;;;;;;;5.03;4.00;;;;;-5.70;97069.00;;;;5053155;28;20649;-61
2024/01/12 01:26:54;;;;;;;5.40;4.90;;;;;-5.80;97066.00;;;;5052305;28;20179;-62
2024/01/12 01:29:23;;;;;;;8.50;6.30;;;;;-5.60;97066.00;;;;5053374;28;20203;-62
2024/01/12 01:31:50;;;;;;;6.63;5.93;;;;;-5.60;97062.00;;;;5053188;28;20209;-62
2024/01/12 01:34:18;;;;;;;7.47;5.50;;;;;-5.70;97072.00;;;;5052737;28;20188;-62
2024/01/12 01:36:45;;;;;;;6.63;5.97;;;;;-5.60;97062.00;;;;5053242;28;20213;-62
2024/01/12 01:39:14;;;;;;;9.20;6.47;;;;;-5.60;97088.00;;;;5052856;28;20221;-62
2024/01/12 01:41:41;;;;;;;7.70;5.33;;;;;-5.50;97074.00;;;;5051478;28;20208;-62
2024/01/12 01:44:09;;;;;;;6.13;5.53;;;;;-5.50;97044.00;;;;5053833;28;20509;-62
2024/01/12 01:46:37;;;;;;;8.13;7.17;;;;;-5.50;97097.00;;;;5053330;28;20196;-62
2024/01/12 01:49:05;;;;;;;7.30;6.07;;;;;-5.60;97071.00;;;;5052884;28;20183;-62
2024/01/12 01:51:33;;;;;;;9.70;4.07;;;;;-5.50;97079.00;;;;5052541;28;20194;-62
2024/01/12 01:54:00;;;;;;;6.43;5.77;;;;;-5.60;97077.00;;;;5051333;28;20198;-62
2024/01/12 01:56:28;;;;;;;8.63;7.50;;;;;-5.80;97077.00;;;;5052869;28;20208;-62
2024/01/12 01:58:55;;;;;;;7.93;5.57;;;;;-5.90;97079.00;;;;5052786;28;20284;-62
2024/01/12 02:01:23;;;;;;;7.20;5.83;;;;;-5.90;97077.00;;;;5052891;28;20202;-62
2024/01/12 02:03:52;;;;;;;7.47;6.77;;;;;-5.80;97072.00;;;;5052535;28;20206;-62
2024/01/12 02:06:20;;;;;;;7.60;5.90;;;;;-5.80;97080.00;;;;5052495;28;20189;-62
2024/01/12 02:08:48;;;;;;;6.50;5.23;;;;;-5.80;97080.00;;;;5052471;28;20192;-62
2024/01/12 02:11:16;;;;;;;7.73;5.80;;;;;-5.80;97079.00;;;;5051345;28;20577;-62
2024/01/12 02:13:43;;;;;;;11.57;5.13;;;;;-5.90;97080.00;;;;5053335;28;20219;-62
2024/01/12 02:16:11;;;;;;;8.47;6.50;;;;;-5.80;97076.00;;;;5056411;28;20197;-62
2024/01/12 02:18:38;;;;;;;5.97;5.37;;;;;-5.80;97079.00;;;;5056267;28;20195;-62
2024/01/12 02:21:07;;;;;;;10.67;6.20;;;;;-5.90;97078.00;;;;5054753;28;20219;-61
2024/01/12 02:23:34;;;;;;;8.70;4.77;;;;;-5.80;97071.00;;;;5055890;28;20221;-63
2024/01/12 02:26:02;;;;;;;5.97;5.37;;;;;-5.90;97074.00;;;;5056145;28;20202;-62
2024/01/12 02:28:31;;;;;;;3.57;3.30;;;;;-6.00;97061.00;;;;5056262;28;20209;-62
2024/01/12 02:31:00;;;;;;;6.67;5.03;;;;;-6.00;97067.00;;;;5055828;28;20186;-62
2024/01/12 02:33:27;;;;;;;7.60;4.57;;;;;-6.00;97070.00;;;;5055841;28;20263;-62
2024/01/12 02:35:54;;;;;;;5.93;4.73;;;;;-6.10;97075.00;;;;5056008;28;20685;-62
2024/01/12 02:38:23;;;;;;;5.60;4.80;;;;;-6.10;97069.00;;;;5056319;28;20210;-62
2024/01/12 02:40:51;;;;;;;4.50;4.10;;;;;-6.20;97077.00;;;;5055419;28;20232;-62
2024/01/12 02:43:18;;;;;;;7.87;5.87;;;;;-6.40;97060.00;;;;5055657;28;20308;-61
2024/01/12 02:45:45;;;;;;;8.37;5.60;;;;;-6.30;97059.00;;;;5055622;28;20201;-62
2024/01/12 02:48:13;;;;;;;6.47;5.87;;;;;-6.20;97066.00;;;;5054124;28;20202;-61
2024/01/12 02:50:40;;;;;;;7.53;5.40;;;;;-6.30;97058.00;;;;5055418;28;20199;-61
2024/01/12 02:53:08;;;;;;;6.40;5.17;;;;;-6.20;97064.00;;;;5055430;28;20210;-61
2024/01/12 02:55:36;;;;;;;7.97;3.83;;;;;-6.20;97061.00;;;;5055634;28;20188;-62
2024/01/12 02:58:04;;;;;;;9.33;5.13;;;;;-6.20;97069.00;;;;5055483;28;20214;-62
2024/01/12 03:00:31;;;;;;;4.70;3.80;;;;;-6.20;97078.00;;;;5055338;28;20214;-62
2024/01/12 03:02:59;;;;;;;5.10;4.60;;;;;-6.10;97077.00;;;;5055311;28;20212;-62
2024/01/12 03:05:26;;;;;;;18.23;5.70;;;;;-6.20;97075.00;;;;5055038;28;20198;-62
2024/01/12 03:07:53;;;;;;;6.77;5.90;;;;;-6.10;97063.00;;;;5054877;28;20198;-62
2024/01/12 03:10:21;;;;;;;5.77;4.73;;;;;-6.20;97069.00;;;;5054982;28;20188;-62
2024/01/12 03:12:50;;;;;;;4.87;3.53;;;;;-6.50;97055.00;;;;5054983;28;20688;-62
2024/01/12 03:15:17;;;;;;;11.17;5.60;;;;;-6.40;97064.00;;;;5055053;28;20205;-62
2024/01/12 03:17:45;;;;;;;8.13;6.10;;;;;-6.30;97059.00;;;;5054895;28;20238;-61
2024/01/12 03:20:12;;;;;;;3.53;3.17;;;;;-6.20;97057.00;;;;5055089;28;20579;-61
2024/01/12 03:22:39;;;;;;;3.70;3.40;;;;;-6.30;97041.00;;;;5054053;28;20270;-63
2024/01/12 03:25:07;;;;;;;4.47;3.07;;;;;-6.30;97038.00;;;;5054467;28;20188;-61
2024/01/12 03:27:35;;;;;;;9.87;5.90;;;;;-6.30;97039.00;;;;5054562;28;20197;-61
2024/01/12 03:30:04;;;;;;;4.17;3.30;;;;;-6.30;97048.00;;;;5055248;28;20751;-61
2024/01/12 03:32:33;;;;;;;4.67;4.27;;;;;-6.30;97042.00;;;;5054637;28;20213;-61
2024/01/12 03:35:00;;;;;;;5.07;4.67;;;;;-6.40;97044.00;;;;5053230;28;20230;-61
2024/01/12 03:37:28;;;;;;;9.53;6.13;;;;;-6.40;97042.00;;;;5054787;28;20192;-61
2024/01/12 03:39:55;;;;;;;3.77;3.47;;;;;-6.50;97041.00;;;;5054273;28;20211;-61
2024/01/12 03:42:23;;;;;;;7.13;4.53;;;;;-6.40;97028.00;;;;5054069;28;20721;-61
2024/01/12 03:44:50;;;;;;;3.67;3.37;;;;;-6.40;97037.00;;;;5054545;28;20590;-62
2024/01/12 03:47:19;;;;;;;5.07;3.77;;;;;-6.40;97027.00;;;;5054192;28;20198;-61
2024/01/12 03:49:46;;;;;;;13.37;4.87;;;;;-6.40;97045.00;;;;5054196;28;20246;-62
2024/01/12 03:52:14;;;;;;;7.43;4.63;;;;;-6.40;97032.00;;;;5054062;28;20212;-62
2024/01/12 03:54:41;;;;;;;6.23;3.77;;;;;-6.50;97026.00;;;;5054501;28;20216;-62
2024/01/12 03:57:08;;;;;;;5.17;4.27;;;;;-6.60;97029.00;;;;5052684;28;20198;-62
2024/01/12 03:59:36;;;;;;;5.67;4.17;;;;;-6.70;97032.00;;;;5054266;28;20192;-62
2024/01/12 04:02:04;;;;;;;5.73;4.60;;;;;-6.70;97028.00;;;;5053928;28;20314;-63
2024/01/12 04:04:32;;;;;;;27.50;5.30;;;;;-6.70;97035.00;;;;5053811;28;20217;-62
2024/01/12 04:07:00;;;;;;;2.80;2.60;;;;;-6.70;97033.00;;;;5054437;28;20193;-62
2024/01/12 04:09:27;;;;;;;3.87;2.50;;;;;-6.80;97032.00;;;;5053921;28;20198;-62
2024/01/12 04:11:54;;;;;;;5.20;4.70;;;;;-6.70;97022.00;;;;5053816;28;20544;-62
2024/01/12 04:14:22;;;;;;;5.30;3.80;;;;;-6.70;97016.00;;;;5054161;28;20197;-62
2024/01/12 04:16:49;;;;;;;3.13;2.90;;;;;-6.60;97018.00;;;;5053856;28;20198;-63
2024/01/12 04:19:17;;;;;;;8.83;4.53;;;;;-6.60;97027.00;;;;5053687;28;20200;-62
2024/01/12 04:21:45;;;;;;;5.13;4.67;;;;;-6.60;97020.00;;;;5053666;28;20216;-62
2024/01/12 04:24:13;;;;;;;3.70;3.40;;;;;-6.60;97025.00;;;;5053451;28;20583;-62
2024/01/12 04:26:40;;;;;;;6.93;5.03;;;;;-6.60;97021.00;;;;5052283;28;20224;-62
2024/01/12 04:29:07;;;;;;;8.17;4.80;;;;;-6.50;97023.00;;;;5053747;28;20201;-62
2024/01/12 04:31:39;;;;;;;5.43;4.67;;;;;-6.60;97019.00;;;;5052303;28;20211;-62
2024/01/12 04:34:06;;;;;;;6.60;4.77;;;;;-6.80;97019.00;;;;5053991;28;20623;-63
2024/01/12 04:36:33;;;;;;;7.20;4.57;;;;;-6.80;97021.00;;;;5052828;28;20553;-62
2024/01/12 04:39:02;;;;;;;7.63;6.13;;;;;-6.80;97021.00;;;;5053341;28;20660;-63
2024/01/12 04:41:30;;;;;;;4.87;4.47;;;;;-6.90;97030.00;;;;5053077;28;20230;-62
2024/01/12 04:43:57;;;;;;;4.83;3.97;;;;;-6.90;97032.00;;;;5053383;28;20189;-62
2024/01/12 04:46:24;;;;;;;4.47;4.13;;;;;-6.80;97030.00;;;;5053689;28;20660;-62
2024/01/12 04:48:52;;;;;;;6.03;4.40;;;;;-6.70;97039.00;;;;5053305;28;20201;-63
2024/01/12 04:51:20;;;;;;;5.83;5.33;;;;;-6.60;97036.00;;;;5053606;28;20186;-63
2024/01/12 04:53:47;;;;;;;9.13;6.00;;;;;-6.70;97033.00;;;;5053296;28;20271;-62
2024/01/12 04:56:17;;;;;;;9.27;5.70;;;;;-6.80;97041.00;;;;5053223;28;20680;-62
2024/01/12 04:58:44;;;;;;;5.03;4.23;;;;;-6.90;97039.00;;;;5053457;28;20197;-62
2024/01/12 05:01:11;;;;;;;5.83;4.77;;;;;-6.90;97038.00;;;;5053485;28;20219;-62
2024/01/12 05:03:39;;;;;;;5.53;4.50;;;;;-6.90;97042.00;;;;5053170;28;20215;-62
2024/01/12 05:06:06;;;;;;;7.23;5.67;;;;;-7.00;97051.00;;;;5053275;28;20193;-62
2024/01/12 05:08:34;;;;;;;4.17;3.87;;;;;-7.10;97056.00;;;;5054589;28;20196;-62
2024/01/12 05:11:02;;;;;;;4.30;3.93;;;;;-7.00;97054.00;;;;5055142;28;20268;-62
2024/01/12 05:13:31;;;;;;;8.10;5.13;;;;;-7.10;97053.00;;;;5055150;28;20216;-62
2024/01/12 05:15:58;;;;;;;6.20;5.60;;;;;-7.10;97059.00;;;;5055732;28;20198;-62
2024/01/12 05:18:25;;;;;;;5.00;4.50;;;;;-7.00;97050.00;;;;5053414;28;20210;-62
2024/01/12 05:20:53;;;;;;;8.57;5.43;;;;;-6.90;97059.00;;;;5053337;28;20239;-62
2024/01/12 05:23:20;;;;;;;3.97;3.20;;;;;-6.90;97068.00;;;;5053178;28;20239;-62
2024/01/12 05:25:48;;;;;;;6.77;5.60;;;;;-6.90;97062.00;;;;5051618;28;20575;-62
2024/01/12 05:28:15;;;;;;;8.40;5.70;;;;;-6.80;97064.00;;;;5053212;28;20189;-62
2024/01/12 05:30:44;;;;;;;8.33;5.87;;;;;-6.90;97082.00;;;;5053967;28;20371;-62
2024/01/12 05:33:11;;;;;;;9.10;4.97;;;;;-6.20;97079.00;;;;5053889;28;20224;-62
2024/01/12 05:35:39;;;;;;;4.20;3.13;;;;;-5.70;97084.00;;;;5053434;28;20201;-62
2024/01/12 05:38:06;;;;;;;6.67;6.00;;;;;-5.80;97081.00;;;;5053727;28;20240;-62
2024/01/12 05:40:34;;;;;;;14.60;8.03;;;;;-6.00;97069.00;;;;5053107;28;20216;-62
2024/01/12 05:43:01;;;;;;;8.17;4.23;;;;;-6.20;97083.00;;;;5053312;28;20211;-62
2024/01/12 05:45:28;;;;;;;11.10;6.73;;;;;-6.30;97079.00;;;;5051812;28;20679;-62
2024/01/12 05:47:57;;;;;;;7.13;5.17;;;;;-6.30;97070.00;;;;5054186;28;20197;-62
2024/01/12 05:50:25;;;;;;;11.73;6.40;;;;;-6.40;97080.00;;;;5056654;28;20219;-62
2024/01/12 05:52:52;;;;;;;5.43;4.97;;;;;-6.60;97071.00;;;;5055145;28;20562;-62
2024/01/12 05:55:20;;;;;;;9.00;5.93;;;;;-6.70;97064.00;;;;5056949;28;20192;-62
2024/01/12 05:57:47;;;;;;;6.60;5.53;;;;;-6.70;97068.00;;;;5056328;28;20209;-62
2024/01/12 06:00:16;;;;;;;5.07;4.43;;;;;-6.60;97073.00;;;;5056452;28;20202;-62
2024/01/12 06:02:43;;;;;;;7.07;6.00;;;;;-6.70;97075.00;;;;5056649;28;20271;-62
2024/01/12 06:05:12;;;;;;;4.50;4.07;;;;;-7.00;97058.00;;;;5056448;28;20199;-62
2024/01/12 06:07:39;;;;;;;5.57;4.53;;;;;-7.00;97064.00;;;;5056660;28;20197;-62
2024/01/12 06:10:08;;;;;;;8.53;6.77;;;;;-7.00;97057.00;;;;5056194;28;20200;-62
2024/01/12 06:12:36;;;;;;;5.80;4.67;;;;;-7.00;97062.00;;;;5056120;28;20219;-62
2024/01/12 06:15:05;;;;;;;8.47;5.77;;;;;-6.90;97068.00;;;;5056394;28;20287;-62
2024/01/12 06:17:33;;;;;;;6.90;5.00;;;;;-6.90;97072.00;;;;5056436;28;20283;-62
2024/01/12 06:20:00;;;;;;;8.03;5.50;;;;;-6.90;97052.00;;;;5056299;28;20192;-62
2024/01/12 06:22:29;;;;;;;5.20;4.67;;;;;-6.80;97056.00;;;;5055738;28;20761;-62
2024/01/12 06:24:56;;;;;;;9.40;4.90;;;;;-6.90;97063.00;;;;5056367;28;20194;-62
2024/01/12 06:27:24;;;;;;;11.27;4.57;;;;;-6.90;97063.00;;;;5055826;28;20207;-62
2024/01/12 06:29:51;;;;;;;8.73;5.87;;;;;-6.90;97064.00;;;;5055990;28;20586;-62
2024/01/12 06:32:18;;;;;;;5.93;5.37;;;;;-7.00;97060.00;;;;5055971;28;20568;-62
2024/01/12 06:34:47;;;;;;;19.50;7.17;;;;;-6.90;97063.00;;;;5055693;28;20218;-62
2024/01/12 06:37:14;;;;;;;12.97;6.33;;;;;-7.00;97060.00;;;;5056244;28;20201;-62
2024/01/12 06:39:43;;;;;;;9.00;6.03;;;;;-7.00;97062.00;;;;5055617;28;20203;-62
2024/01/12 06:42:11;;;;;;;6.43;5.83;;;;;-6.90;97060.00;;;;5055647;28;20219;-62
2024/01/12 06:44:41;;;;;;;12.07;6.10;;;;;-7.10;97061.00;;;;5055525;28;20198;-62
2024/01/12 06:47:09;;;;;;;6.33;4.83;;;;;-7.00;97067.00;;;;5055846;28;20174;-62
2024/01/12 06:49:36;;;;;;;10.33;7.10;;;;;-7.10;97064.00;;;;5055615;28;20196;-62
2024/01/12 06:52:04;;;;;;;6.63;5.67;;;;;-7.10;97071.00;;;;5055332;28;20216;-62
2024/01/12 06:54:31;;;;;;;8.30;4.87;;;;;-7.30;97078.00;;;;5055648;28;20192;-62
2024/01/12 06:57:00;;;;;;;6.37;5.17;;;;;-7.30;97066.00;;;;5055342;28;20199;-62
2024/01/12 06:59:28;;;;;;;5.60;5.10;;;;;-7.30;97069.00;;;;5055211;28;20656;-62
2024/01/12 07:01:55;;;;;;;7.57;3.33;;;;;-7.40;97075.00;;;;5055214;28;20217;-62
2024/01/12 07:04:22;;;;;;;8.90;5.13;;;;;-7.40;97067.00;;;;5055525;28;20196;-62
2024/01/12 07:06:51;;;;;;;7.03;4.07;;;;;-7.40;97071.00;;;;5055379;28;20196;-62
2024/01/12 07:09:19;;;;;;;12.13;6.13;;;;;-7.30;97065.00;;;;5055366;28;20196;-62
2024/01/12 07:11:47;;;;;;;4.80;4.23;;;;;-7.30;97074.00;;;;5053917;28;20668;-62
2024/01/12 07:14:15;;;;;;;5.13;4.63;;;;;-7.10;97064.00;;;;5055711;28;20199;-62
2024/01/12 07:16:43;;;;;;;7.73;4.77;;;;;-7.10;97064.00;;;;5055073;28;20196;-62
2024/01/12 07:19:11;;;;;;;6.80;5.00;;;;;-7.10;97063.00;;;;5054991;28;20192;-62
2024/01/12 07:21:40;;;;;;;8.73;5.97;;;;;-7.20;97057.00;;;;5054834;28;20255;-62
2024/01/12 07:24:07;;;;;;;8.27;3.87;;;;;-7.30;97054.00;;;;5057165;28;20216;-65
2024/01/12 07:26:35;;;;;;;4.47;4.07;;;;;-7.10;97057.00;;;;5051327;28;20193;-64
2024/01/12 07:29:02;;;;;;;9.13;5.70;;;;;-7.10;97062.00;;;;5051892;28;20203;-64
2024/01/12 07:31:33;;;;;;;13.70;7.07;;;;;-7.10;97063.00;;;;5053184;28;20195;-63
2024/01/12 07:34:00;;;;;;;9.60;4.13;;;;;-7.30;97070.00;;;;5051510;28;20191;-63
2024/01/12 07:36:28;;;;;;;7.00;4.70;;;;;-7.30;97070.00;;;;5052641;28;20201;-63
2024/01/12 07:38:57;;;;;;;6.80;4.33;;;;;-7.40;97067.00;;;;5052663;28;20570;-62
2024/01/12 07:41:24;;;;;;;4.13;3.83;;;;;-7.50;97076.00;;;;5051023;28;20228;-62
2024/01/12 07:43:52;;;;;;;4.50;3.70;;;;;-7.40;97078.00;;;;5052505;28;20656;-62
2024/01/12 07:46:19;;;;;;;5.73;4.73;;;;;-7.30;97073.00;;;;5052220;28;20192;-63
2024/01/12 07:48:50;;;;;;;4.10;3.57;;;;;-7.30;97072.00;;;;5053903;28;20204;-62
2024/01/12 07:51:17;;;;;;;5.93;3.57;;;;;-7.30;97070.00;;;;5052553;28;20192;-62
2024/01/12 07:53:45;;;;;;;4.70;4.27;;;;;-7.20;97074.00;;;;5052381;28;20262;-62
2024/01/12 07:56:13;;;;;;;6.37;5.50;;;;;-7.10;97060.00;;;;5053104;28;20239;-62
2024/01/12 07:58:40;;;;;;;8.50;4.87;;;;;-7.10;97068.00;;;;5051989;28;20617;-62
2024/01/12 08:01:13;;;;;;;15.80;5.97;;;;;-7.00;97062.00;;;;5052593;28;20227;-62
2024/01/12 08:03:41;;;;;;;6.13;4.50;;;;;-6.90;97065.00;;;;5051960;28;20220;-62
2024/01/12 08:06:10;;;;;;;5.87;5.37;;;;;-6.80;97072.00;;;;5052630;28;20192;-62
2024/01/12 08:08:38;;;;;;;5.40;4.87;;;;;-6.80;97086.00;;;;5052550;28;20274;-62
2024/01/12 08:11:06;;;;;;;18.83;6.47;;;;;-6.80;97072.00;;;;5051378;28;20208;-62
2024/01/12 08:13:33;;;;;;;7.57;4.43;;;;;-7.00;97079.00;;;;5051985;28;20750;-62
2024/01/12 08:16:01;;;;;;;6.60;3.37;;;;;-7.10;97088.00;;;;5052555;28;20272;-63
2024/01/12 08:18:29;;;;;;;3.80;3.50;;;;;-6.90;97088.00;;;;5050196;28;20211;-63
2024/01/12 08:20:57;;;;;;;4.37;4.07;;;;;-6.80;97092.00;;;;5052267;28;20207;-64
2024/01/12 08:23:26;;;;;;;4.13;3.63;;;;;-6.90;97080.00;;;;5051718;28;20224;-63
2024/01/12 08:25:54;;;;;;;8.50;5.97;;;;;-6.80;97087.00;;;;5052340;28;20228;-64
2024/01/12 08:28:22;;;;;;;10.07;6.37;;;;;-6.70;97083.00;;;;5050603;28;20284;-63
2024/01/12 08:30:50;;;;;;;3.67;3.37;;;;;-6.50;97097.00;;;;5047334;28;20193;-62
2024/01/12 08:33:17;;;;;;;7.23;6.13;;;;;-6.30;97094.00;;;;5049901;28;20215;-62
2024/01/12 08:35:46;;;;;;;5.30;4.77;;;;;-6.20;97078.00;;;;5051786;28;20203;-62
2024/01/12 08:38:14;;;;;;;5.43;4.40;;;;;-6.30;97078.00;;;;5050775;28;20206;-62
2024/01/12 08:40:43;;;;;;;6.93;5.03;;;;;-6.10;97092.00;;;;5051569;28;20213;-63
2024/01/12 08:43:12;;;;;;;15.77;5.30;;;;;-6.20;97088.00;;;;5049780;28;20720;-62
2024/01/12 08:45:39;;;;;;;5.97;4.30;;;;;-6.10;97103.00;;;;5051642;28;20202;-63
2024/01/12 08:48:07;;;;;;;11.37;6.50;;;;;-6.10;97100.00;;;;5051067;28;20207;-62
2024/01/12 08:50:34;;;;;;;12.20;5.93;;;;;-5.90;97094.00;;;;5051660;28;20196;-62
2024/01/12 08:53:02;;;;;;;7.87;5.67;;;;;-5.80;97100.00;;;;5051382;28;20221;-63
2024/01/12 08:55:30;;;;;;;6.63;4.77;;;;;-5.70;97104.00;;;;5051993;28;20530;-63
2024/01/12 08:57:58;;;;;;;5.13;4.40;;;;;-5.80;97106.00;;;;5051685;28;20203;-62
2024/01/12 09:00:26;;;;;;;6.03;5.37;;;;;-5.60;97103.00;;;;5050758;28;20209;-63
2024/01/12 09:02:53;;;;;;;6.23;4.97;;;;;-5.50;97109.00;;;;5051170;28;20226;-62
2024/01/12 09:05:22;;;;;;;4.80;4.37;;;;;-5.30;97103.00;;;;5050831;28;20208;-62
2024/01/12 09:07:49;;;;;;;5.07;4.30;;;;;-5.20;97102.00;;;;5051219;28;20225;-63
2024/01/12 09:10:16;;;;;;;4.43;3.43;;;;;-5.30;97113.00;;;;5050598;28;20205;-62
2024/01/12 09:12:44;;;;;;;4.63;4.20;;;;;-5.20;97098.00;;;;5050371;28;20215;-62
2024/01/12 09:15:14;;;;;;;3.57;3.37;;;;;-5.10;97101.00;;;;5051108;28;20200;-62
2024/01/12 09:17:42;;;;;;;6.23;5.27;;;;;-5.00;97108.00;;;;5049493;28;20199;-63
2024/01/12 09:20:10;;;;;;;11.87;4.87;;;;;-4.80;97106.00;;;;5051247;28;20210;-62
2024/01/12 09:22:38;;;;;;;4.53;3.87;;;;;-4.70;97114.00;;;;5051874;28;20227;-62
2024/01/12 09:25:06;;;;;;;4.87;4.40;;;;;-4.60;97113.00;;;;5054372;28;20204;-62
2024/01/12 09:27:34;;;;;;;5.37;4.80;;;;;-4.50;97102.00;;;;5053128;28;20736;-62
2024/01/12 09:30:01;;;;;;;4.63;4.23;;;;;-4.60;97106.00;;;;5054751;28;20197;-62
2024/01/12 09:32:30;;;;;;;6.30;4.33;;;;;-4.40;97105.00;;;;5054147;28;20218;-62
2024/01/12 09:34:58;;;;;;;9.60;3.83;;;;;-4.20;97110.00;;;;5054397;28;20195;-62
2024/01/12 09:37:25;;;;;;;6.03;4.60;;;;;-4.20;97116.00;;;;5054738;28;20244;-62
2024/01/12 09:39:53;;;;;;;13.60;5.73;;;;;-4.20;97111.00;;;;5054607;28;20194;-62
2024/01/12 09:42:23;;;;;;;5.50;4.93;;;;;-4.00;97123.00;;;;5053856;28;20302;-63
2024/01/12 09:44:52;;;;;;;7.60;4.60;;;;;-3.90;97115.00;;;;5054253;28;20228;-63
2024/01/12 09:47:20;;;;;;;6.23;5.47;;;;;-3.80;97120.00;;;;5054955;28;20200;-64
2024/01/12 09:49:50;;;;;;;5.30;3.00;;;;;-3.70;97114.00;;;;5053439;28;20702;-63
2024/01/12 09:52:18;;;;;;;6.43;4.13;;;;;-3.40;97113.00;;;;5054585;28;20215;-62
2024/01/12 09:54:46;;;;;;;3.37;2.93;;;;;-3.20;97101.00;;;;5054311;28;20198;-62
2024/01/12 09:57:14;;;;;;;6.13;3.97;;;;;-3.20;97068.00;;;;5055405;28;20287;-63
2024/01/12 09:59:42;;;;;;;6.80;5.03;;;;;-3.00;97106.00;;;;5054302;28;20207;-63
2024/01/12 10:02:13;;;;;;;9.37;3.87;;;;;-3.20;97099.00;;;;5054521;28;20711;-62
2024/01/12 10:04:41;;;;;;;3.90;3.40;;;;;-3.00;97105.00;;;;5055208;28;20551;-62
2024/01/12 10:07:10;;;;;;;3.13;2.80;;;;;-2.80;97111.00;;;;5055317;28;20262;-62
2024/01/12 10:09:37;;;;;;;5.43;4.90;;;;;-2.70;97107.00;;;;5053486;28;20200;-62
2024/01/12 10:12:06;;;;;;;9.23;4.60;;;;;-2.50;97112.00;;;;5054133;28;20220;-62
2024/01/12 10:14:33;;;;;;;10.33;5.20;;;;;-2.40;97107.00;;;;5054250;28;20195;-63
2024/01/12 10:17:01;;;;;;;4.67;4.27;;;;;-2.30;97105.00;;;;5054138;28;20231;-62
2024/01/12 10:19:29;;;;;;;3.50;2.53;;;;;-2.50;97091.00;;;;5052754;28;20290;-63
2024/01/12 10:21:56;;;;;;;4.23;3.83;;;;;-2.40;97084.00;;;;5053881;28;20226;-63
2024/01/12 10:24:27;;;;;;;3.53;3.00;;;;;-2.40;97079.00;;;;5052446;28;20203;-62
2024/01/12 10:27:00;;;;;;;7.87;4.13;;;;;-2.30;97085.00;;;;5054032;28;20694;-63
2024/01/12 10:29:28;;;;;;;4.97;4.07;;;;;-2.30;97082.00;;;;5054026;28;20192;-63
2024/01/12 10:31:55;;;;;;;3.43;3.13;;;;;-2.30;97079.00;;;;5053633;28;20655;-62
2024/01/12 10:34:25;;;;;;;7.57;5.00;;;;;-1.80;97082.00;;;;5052648;28;20266;-63
2024/01/12 10:36:56;;;;;;;4.77;4.30;;;;;-1.70;97089.00;;;;5053442;28;20214;-62
2024/01/12 10:39:26;;;;;;;4.43;4.03;;;;;-1.40;97077.00;;;;5053618;28;20215;-63
2024/01/12 10:42:00;;;;;;;5.33;4.50;;;;;-1.50;97070.00;;;;5053473;28;20220;-62
2024/01/12 10:44:32;;;;;;;4.03;3.70;;;;;-1.30;97073.00;;;;5053631;28;20266;-62
2024/01/12 10:47:05;;;;;;;8.27;5.67;;;;;-1.40;97066.00;;;;5047814;28;20184;-63
2024/01/12 10:49:40;;;;;;;5.13;4.40;;;;;-1.30;97072.00;;;;5053540;28;20555;-62
2024/01/12 10:52:13;;;;;;;7.37;4.23;;;;;-1.10;97070.00;;;;5052895;28;20219;-63
2024/01/12 10:54:48;;;;;;;4.23;3.87;;;;;-1.00;97064.00;;;;5052208;28;20200;-63
2024/01/12 10:57:16;;;;;;;3.70;3.40;;;;;-0.90;97073.00;;;;5052616;28;20275;-63
2024/01/12 10:59:45;;;;;;;6.03;3.83;;;;;-0.90;97069.00;;;;5053126;28;20232;-62
2024/01/12 11:02:15;;;;;;;8.63;4.27;;;;;-0.50;97060.00;;;;5053115;28;20274;-63
2024/01/12 11:04:43;;;;;;;9.03;5.70;;;;;-0.20;97060.00;;;;5053256;28;20197;-62
2024/01/12 11:07:13;;;;;;;13.03;4.57;;;;;0.10;97055.00;;;;5052014;28;20197;-62
2024/01/12 11:09:42;;;;;;;5.57;3.93;;;;;0.50;97067.00;;;;5053331;28;20188;-62
2024/01/12 11:12:11;;;;;;;6.70;5.10;;;;;0.60;97048.00;;;;5051577;28;20639;-62
2024/01/12 11:14:40;;;;;;;4.57;4.20;;;;;1.00;97050.00;;;;5052959;28;20200;-63
2024/01/12 11:17:08;;;;;;;3.27;2.97;;;;;1.70;97031.00;;;;5052152;28;20203;-63
2024/01/12 11:19:36;;;;;;;6.63;4.23;;;;;2.30;97023.00;;;;5052816;28;20193;-63
2024/01/12 11:22:04;;;;;;;5.20;4.13;;;;;3.20;97015.00;;;;5052475;28;20303;-63
2024/01/12 11:24:32;;;;;;;35.17;4.40;;;;;4.30;97010.00;;;;5051494;28;20684;-63
2024/01/12 11:27:02;;;;;;;12.40;6.73;;;;;5.10;97012.00;;;;5051692;28;20534;-63
2024/01/12 11:29:30;;;;;;;5.00;3.23;;;;;6.70;97018.00;;;;5051954;28;20284;-62
2024/01/12 11:32:02;;;;;;;6.63;5.40;;;;;7.60;97009.00;;;;5052260;28;20219;-62
2024/01/12 11:34:33;;;;;;;5.47;4.13;;;;;8.70;96999.00;;;;5053098;28;20198;-63
2024/01/12 11:37:02;;;;;;;4.93;4.43;;;;;9.30;97000.00;;;;5052230;28;20191;-63
2024/01/12 11:39:33;;;;;;;7.17;5.57;;;;;9.60;97012.00;;;;5052911;28;20214;-62
2024/01/12 11:42:03;;;;;;;5.10;4.63;;;;;11.00;97007.00;;;;5051982;28;20232;-61
2024/01/12 11:44:32;;;;;;;9.80;5.53;;;;;11.70;97004.00;;;;5052624;28;20192;-61
2024/01/12 11:47:00;;;;;;;6.40;4.80;;;;;12.60;97007.00;;;;5051825;28;20196;-61
2024/01/12 11:49:27;;;;;;;9.53;5.07;;;;;13.30;97005.00;;;;5053281;28;20563;-62
2024/01/12 11:52:03;;;;;;;6.87;5.30;;;;;14.40;97005.00;;;;5053012;28;20220;-62
2024/01/12 11:54:32;;;;;;;10.33;6.13;;;;;15.30;97001.00;;;;5052498;28;20211;-62
2024/01/12 11:57:02;;;;;;;5.40;4.30;;;;;15.40;96999.00;;;;5051781;28;20200;-63
2024/01/12 11:59:30;;;;;;;4.00;3.60;;;;;16.80;97008.00;;;;5052000;28;20609;-63
2024/01/12 12:02:00;;;;;;;5.23;4.70;;;;;17.30;97016.00;;;;5052033;28;20711;-65
2024/01/12 12:04:27;;;;;;;6.10;4.80;;;;;18.50;97010.00;;;;5052842;28;20219;-61
2024/01/12 12:06:54;;;;;;;7.03;5.17;;;;;19.10;97010.00;;;;5052036;28;20705;-62
2024/01/12 12:09:22;;;;;;;5.77;5.17;;;;;20.10;96997.00;;;;5051847;28;20196;-63
2024/01/12 12:11:49;;;;;;;7.60;5.40;;;;;20.80;97001.00;;;;5050804;28;20222;-62
2024/01/12 12:14:18;;;;;;;7.90;7.10;;;;;22.00;97004.00;;;;5052269;28;20199;-62
2024/01/12 12:16:46;;;;;;;10.30;5.57;;;;;21.20;97002.00;;;;5051976;28;20224;-62
2024/01/12 12:19:14;;;;;;;5.70;4.73;;;;;22.10;97007.00;;;;5051775;28;20203;-62